Ana Sayfa
METAR-TAF:

METAR-TAF

Havaalanları :

Emporia-Greensville Regional Airport

Emporia, Virginia, Amerika Birleşik Devletleri

Enlem: 36-41-13N, Boylam: 077-28-58W, yükseklik: 39 m

Güncel hava durumu gözlemi

Rapor saat 23:15 UTC de 12 dakika önce yapıldı.
Rüzgar kuzey/kuzeydoğudan 3 kt
Sıcaklık 1°C
Nem 75%
Basınç 1037 hPa
Görüş mesafesi: 16.1 km
Açık gökyüzü

METAR: KEMV 122315Z AUTO 03003KT 10SM CLR 01/M03 A3061 RMK AO2 T00091030

Saat: 18:27 (23:27 UTC)


TAF: eksik

4.000'den fazla havaalanı için hava durumu gözlemleri ve tahminleri (METAR ve TAF raporları).

Kullanılabilir istasyonlar harita üzerinde sarı ve kırmızı noktalarla gösterilir.

İstasyonun adını görmek için fareyi noktanın üzerinde gezdirin.

Sonrasında hava gözlem ve tahminlerini görmek için tıklayın.

Haritayı değiştirmek için: yaklaştırmak için siyah artı işaretli yeşil düğmeye ve uzaklaştırmak için de eksi işaretli düğmeye hızla tıklayın; bitişik haritalar için yeşil okları kullanın.


METAR-TAF: